createdAt,value
2022-11-06T00:00:50.160Z,1.63
2022-11-06T00:01:50.184Z,1.63
2022-11-06T00:02:50.213Z,1.66
2022-11-06T00:03:50.156Z,1.60
2022-11-06T00:04:50.121Z,1.67
2022-11-06T00:05:50.108Z,1.70
2022-11-06T00:06:50.111Z,1.71
2022-11-06T00:07:50.071Z,1.81
2022-11-06T00:08:50.103Z,1.77
2022-11-06T00:09:50.037Z,1.76
2022-11-06T00:10:50.034Z,1.73
2022-11-06T00:11:50.037Z,1.70
2022-11-06T00:12:50.025Z,1.63
2022-11-06T00:13:50.028Z,1.59
2022-11-06T00:14:49.971Z,1.53
2022-11-06T00:15:49.964Z,1.53
2022-11-06T00:16:49.937Z,1.53
2022-11-06T00:17:49.967Z,1.50
2022-11-06T00:18:49.965Z,1.45
2022-11-06T00:19:49.923Z,1.45
2022-11-06T00:20:49.937Z,1.55
2022-11-06T00:21:49.929Z,1.63
2022-11-06T00:22:49.889Z,1.70
2022-11-06T00:23:49.935Z,1.70
2022-11-06T00:24:49.866Z,1.67
2022-11-06T00:25:49.873Z,1.63
2022-11-06T00:26:54.195Z,1.59
2022-11-06T00:27:49.846Z,1.59
2022-11-06T00:28:49.870Z,1.59
2022-11-06T00:29:49.856Z,1.56
2022-11-06T00:30:49.812Z,1.52
2022-11-06T00:31:49.795Z,1.53
2022-11-06T00:32:49.764Z,1.56
2022-11-06T00:33:49.819Z,1.58
2022-11-06T00:34:49.769Z,1.58
2022-11-06T00:35:49.746Z,1.56
2022-11-06T00:36:49.747Z,1.55
2022-11-06T00:37:49.735Z,1.49
2022-11-06T00:38:49.755Z,1.44
2022-11-06T00:39:49.704Z,1.42
2022-11-06T00:40:49.711Z,1.42
2022-11-06T00:41:49.689Z,1.38
2022-11-06T00:42:49.676Z,1.41
2022-11-06T00:43:49.663Z,1.41
2022-11-06T00:44:49.692Z,1.37
2022-11-06T00:45:49.650Z,1.38
2022-11-06T00:46:49.630Z,1.44
2022-11-06T00:47:49.616Z,1.45
2022-11-06T00:48:49.601Z,1.45
2022-11-06T00:49:49.637Z,1.42
2022-11-06T00:50:49.593Z,1.40
2022-11-06T00:51:49.559Z,1.40
2022-11-06T00:52:49.549Z,1.40
2022-11-06T00:53:49.539Z,1.45
2022-11-06T00:54:49.541Z,1.44
2022-11-06T00:55:49.540Z,1.42
2022-11-06T00:56:49.515Z,1.41
2022-11-06T00:57:49.513Z,1.40
2022-11-06T00:58:49.485Z,1.35
2022-11-06T00:59:49.627Z,1.40
2022-11-06T01:00:49.464Z,1.45
2022-11-06T01:01:49.532Z,1.44
2022-11-06T01:02:49.551Z,1.49
2022-11-06T01:03:49.429Z,1.49
2022-11-06T01:04:49.438Z,1.53
2022-11-06T01:05:49.406Z,1.55
2022-11-06T01:06:49.410Z,1.49
2022-11-06T01:07:49.389Z,1.44
2022-11-06T01:08:49.390Z,1.38
2022-11-06T01:09:49.409Z,1.34
2022-11-06T01:10:49.371Z,1.35
2022-11-06T01:12:50.322Z,1.30
2022-11-06T01:13:49.331Z,1.32
2022-11-06T01:14:49.451Z,1.32
2022-11-06T01:15:49.335Z,1.34
2022-11-06T01:16:49.289Z,1.34
2022-11-06T01:17:49.289Z,1.34
2022-11-06T01:18:49.282Z,1.30
2022-11-06T01:19:49.290Z,1.32
2022-11-06T01:20:49.245Z,1.28
2022-11-06T01:21:49.231Z,1.30
2022-11-06T01:22:49.308Z,1.31
2022-11-06T01:23:49.213Z,1.26
2022-11-06T01:24:49.314Z,1.24
2022-11-06T01:25:49.195Z,1.19
2022-11-06T01:27:12.092Z,1.16
2022-11-06T01:27:50.171Z,1.17
2022-11-06T01:28:49.167Z,1.19
2022-11-06T01:29:49.182Z,1.17
2022-11-06T01:30:49.192Z,1.19
2022-11-06T01:31:49.112Z,1.19
2022-11-06T01:32:49.097Z,1.23
2022-11-06T01:33:49.113Z,1.23
2022-11-06T01:34:49.124Z,1.24
2022-11-06T01:35:49.086Z,1.28
2022-11-06T01:36:49.065Z,1.28
2022-11-06T01:37:49.073Z,1.26
2022-11-06T01:38:49.045Z,1.22
2022-11-06T01:39:49.079Z,1.16
2022-11-06T01:40:49.025Z,1.12
2022-11-06T01:41:49.014Z,1.08
2022-11-06T01:42:48.986Z,1.13
2022-11-06T01:43:48.992Z,1.17
2022-11-06T01:44:49.009Z,1.16
2022-11-06T01:45:48.959Z,1.08
2022-11-06T01:46:48.957Z,1.06
2022-11-06T01:47:49.029Z,1.04
2022-11-06T01:48:48.918Z,1.02
2022-11-06T01:49:48.948Z,1.01
2022-11-06T01:50:48.906Z,0.96
2022-11-06T01:51:48.909Z,0.94
2022-11-06T01:52:48.884Z,0.92
2022-11-06T01:53:48.894Z,0.94
2022-11-06T01:54:48.920Z,0.98
2022-11-06T01:55:48.881Z,0.96
2022-11-06T01:56:48.852Z,0.96
2022-11-06T01:57:48.849Z,1.04
2022-11-06T01:58:48.831Z,1.12
2022-11-06T01:59:48.859Z,1.12
2022-11-06T02:00:48.805Z,1.17
2022-11-06T02:01:48.904Z,1.26
2022-11-06T02:02:48.930Z,1.32
2022-11-06T02:03:48.768Z,1.34
2022-11-06T02:04:48.807Z,1.32
2022-11-06T02:05:48.746Z,1.37
2022-11-06T02:06:48.745Z,1.31
2022-11-06T02:07:48.716Z,1.30
2022-11-06T02:08:48.708Z,1.37
2022-11-06T02:09:48.705Z,1.32
2022-11-06T02:10:48.717Z,1.28
2022-11-06T02:11:48.679Z,1.23
2022-11-06T02:12:48.667Z,1.23
2022-11-06T02:13:48.685Z,1.20
2022-11-06T02:14:48.641Z,1.17
2022-11-06T02:15:48.667Z,1.19
2022-11-06T02:16:48.634Z,1.17
2022-11-06T02:17:48.647Z,1.17
2022-11-06T02:18:48.622Z,1.14
2022-11-06T02:19:48.617Z,1.17
2022-11-06T02:20:48.638Z,1.14
2022-11-06T02:21:48.564Z,1.17
2022-11-06T02:22:48.568Z,1.22
2022-11-06T02:23:48.560Z,1.23
2022-11-06T02:24:48.550Z,1.30
2022-11-06T02:25:48.569Z,1.37
2022-11-06T02:26:48.530Z,1.35
2022-11-06T02:27:48.513Z,1.41
2022-11-06T02:28:48.507Z,1.34
2022-11-06T02:29:48.497Z,1.35
2022-11-06T02:30:48.512Z,1.48
2022-11-06T02:31:48.470Z,1.37
2022-11-06T02:32:48.447Z,1.44
2022-11-06T02:33:48.455Z,1.44
2022-11-06T02:34:48.424Z,1.55
2022-11-06T02:35:48.450Z,1.59
2022-11-06T02:36:48.417Z,1.52
2022-11-06T02:37:48.406Z,1.53
2022-11-06T02:38:48.379Z,1.50
2022-11-06T02:39:48.392Z,1.44
2022-11-06T02:40:48.436Z,1.35
2022-11-06T02:41:48.350Z,1.35
2022-11-06T02:42:48.352Z,1.38
2022-11-06T02:43:48.332Z,1.50
2022-11-06T02:44:48.342Z,1.71
2022-11-06T02:45:48.326Z,1.81
2022-11-06T02:46:48.288Z,1.77
2022-11-06T02:47:48.285Z,1.78
2022-11-06T02:48:48.264Z,1.84
2022-11-06T02:49:48.263Z,2.14
2022-11-06T02:50:48.314Z,2.18
2022-11-06T02:51:48.251Z,2.11
2022-11-06T02:52:48.223Z,2.11
2022-11-06T02:53:48.223Z,2.13
2022-11-06T02:54:48.203Z,2.31
2022-11-06T02:55:48.238Z,2.33
2022-11-06T02:56:48.191Z,2.29
2022-11-06T02:57:48.201Z,2.29
2022-11-06T02:58:49.287Z,2.07
2022-11-06T02:59:48.165Z,2.06
2022-11-06T03:00:48.163Z,2.14
2022-11-06T03:01:48.260Z,2.20
2022-11-06T03:02:48.260Z,2.18
2022-11-06T03:03:48.109Z,2.22
2022-11-06T03:04:48.107Z,2.28
2022-11-06T03:05:48.133Z,2.32
2022-11-06T03:06:48.086Z,2.24
2022-11-06T03:07:48.063Z,2.28
2022-11-06T03:08:48.067Z,2.44
2022-11-06T03:09:48.051Z,2.56
2022-11-06T03:10:48.076Z,2.51
2022-11-06T03:11:48.024Z,2.54
2022-11-06T03:12:48.002Z,2.53
2022-11-06T03:13:48.027Z,2.69
2022-11-06T03:14:47.991Z,2.62
2022-11-06T03:15:48.008Z,2.51
2022-11-06T03:16:47.963Z,2.43
2022-11-06T03:17:47.975Z,2.35
2022-11-06T03:18:47.954Z,2.29
2022-11-06T03:19:47.932Z,2.32
2022-11-06T03:20:47.941Z,2.53
2022-11-06T03:21:47.904Z,2.60
2022-11-06T03:22:47.912Z,2.60
2022-11-06T03:23:47.878Z,2.46
2022-11-06T03:24:47.861Z,2.38
2022-11-06T03:25:47.894Z,2.39
2022-11-06T03:26:47.871Z,2.39
2022-11-06T03:27:47.836Z,2.31
2022-11-06T03:28:47.825Z,2.29
2022-11-06T03:29:47.834Z,2.26
2022-11-06T03:30:47.842Z,2.24
2022-11-06T03:31:47.809Z,2.22
2022-11-06T03:32:47.788Z,2.35
2022-11-06T03:33:47.791Z,2.46
2022-11-06T03:34:47.775Z,2.39
2022-11-06T03:35:47.795Z,2.39
2022-11-06T03:36:47.743Z,2.46
2022-11-06T03:37:47.730Z,2.69
2022-11-06T03:38:47.729Z,2.69
2022-11-06T03:39:47.712Z,2.64
2022-11-06T03:40:47.725Z,2.50
2022-11-06T03:41:47.688Z,2.50
2022-11-06T03:42:47.677Z,2.50
2022-11-06T03:43:47.680Z,2.85
2022-11-06T03:44:47.646Z,2.86
2022-11-06T03:45:47.679Z,2.90
2022-11-06T03:46:47.629Z,2.92
2022-11-06T03:47:47.629Z,2.92
2022-11-06T03:48:47.609Z,2.92
2022-11-06T03:49:47.609Z,2.90
2022-11-06T03:50:47.632Z,2.86
2022-11-06T03:51:47.565Z,2.77
2022-11-06T03:52:47.577Z,2.77
2022-11-06T03:53:47.554Z,2.79
2022-11-06T03:54:47.532Z,2.79
2022-11-06T03:55:47.572Z,2.74
2022-11-06T03:56:47.520Z,2.82
2022-11-06T03:57:47.514Z,2.80
2022-11-06T03:58:47.622Z,2.72
2022-11-06T03:59:47.484Z,2.53
2022-11-06T04:00:47.517Z,2.67
2022-11-06T04:01:47.628Z,2.61
2022-11-06T04:02:47.641Z,2.62
2022-11-06T04:03:47.440Z,2.65
2022-11-06T04:04:47.408Z,2.60
2022-11-06T04:05:47.411Z,2.39
2022-11-06T04:06:47.448Z,2.61
2022-11-06T04:07:47.392Z,2.53
2022-11-06T04:08:47.387Z,2.43
2022-11-06T04:09:47.366Z,2.44
2022-11-06T04:10:47.370Z,2.44
2022-11-06T04:11:47.394Z,2.43
2022-11-06T04:12:47.358Z,2.43
2022-11-06T04:13:47.341Z,2.56
2022-11-06T04:14:47.325Z,2.53
2022-11-06T04:15:47.313Z,2.31
2022-11-06T04:16:47.327Z,2.26
2022-11-06T04:17:47.293Z,2.28
2022-11-06T04:18:47.259Z,2.33
2022-11-06T04:19:47.268Z,2.49
2022-11-06T04:20:47.245Z,2.53
2022-11-06T04:21:47.275Z,2.53
2022-11-06T04:22:47.227Z,2.46
2022-11-06T04:23:47.230Z,2.51
2022-11-06T04:24:47.198Z,2.50
2022-11-06T04:25:47.191Z,2.53
2022-11-06T04:26:47.200Z,2.60
2022-11-06T04:27:47.165Z,2.47
2022-11-06T04:28:47.158Z,2.38
2022-11-06T04:29:47.145Z,2.31
2022-11-06T04:30:47.139Z,2.25
2022-11-06T04:31:47.178Z,2.24
2022-11-06T04:32:47.128Z,2.29
2022-11-06T04:33:47.110Z,2.28
2022-11-06T04:34:47.092Z,2.28
2022-11-06T04:35:47.092Z,2.25
2022-11-06T04:36:47.115Z,2.36
2022-11-06T04:37:47.071Z,2.33
2022-11-06T04:38:47.057Z,2.35
2022-11-06T04:39:47.044Z,2.25
2022-11-06T04:40:47.008Z,2.33
2022-11-06T04:41:47.030Z,2.25
2022-11-06T04:42:46.988Z,2.18
2022-11-06T04:43:46.979Z,2.18
2022-11-06T04:44:46.993Z,2.22
2022-11-06T04:45:46.970Z,2.35
2022-11-06T04:46:46.996Z,2.39
2022-11-06T04:47:46.944Z,2.36
2022-11-06T04:48:46.953Z,2.32
2022-11-06T04:49:46.923Z,2.26
2022-11-06T04:50:46.917Z,2.06
2022-11-06T04:51:46.941Z,2.17
2022-11-06T04:52:46.899Z,2.25
2022-11-06T04:53:46.884Z,2.39
2022-11-06T04:54:46.877Z,2.50
2022-11-06T04:55:46.862Z,2.49
2022-11-06T04:56:46.887Z,2.46
2022-11-06T04:57:46.869Z,2.36
2022-11-06T04:58:46.860Z,2.33
2022-11-06T04:59:46.818Z,2.28
2022-11-06T05:00:46.966Z,2.18
2022-11-06T05:01:46.955Z,2.18
2022-11-06T05:02:46.823Z,2.25
2022-11-06T05:03:46.766Z,2.25
2022-11-06T05:04:46.775Z,2.22
2022-11-06T05:05:46.749Z,2.18
2022-11-06T05:06:46.738Z,2.22
2022-11-06T05:07:46.759Z,2.18
2022-11-06T05:08:46.711Z,2.13
2022-11-06T05:09:46.708Z,1.92
2022-11-06T05:10:46.700Z,2.07
2022-11-06T05:11:46.689Z,2.08
2022-11-06T05:12:46.710Z,2.31
2022-11-06T05:13:46.669Z,2.46
2022-11-06T05:14:46.650Z,2.49
2022-11-06T05:15:46.627Z,2.36
2022-11-06T05:16:46.631Z,2.26
2022-11-06T05:17:46.637Z,1.97
2022-11-06T05:18:46.611Z,2.08
2022-11-06T05:19:46.572Z,2.10
2022-11-06T05:20:46.565Z,2.10
2022-11-06T05:21:46.585Z,2.06
2022-11-06T05:22:46.576Z,1.97
2022-11-06T05:23:46.544Z,1.74
2022-11-06T05:24:46.530Z,1.88
2022-11-06T05:25:46.532Z,1.84
2022-11-06T05:26:46.560Z,1.59
2022-11-06T05:27:46.504Z,1.84
2022-11-06T05:28:46.497Z,1.92
2022-11-06T05:29:46.491Z,2.02
2022-11-06T05:30:46.489Z,2.08
2022-11-06T05:31:46.469Z,2.06
2022-11-06T05:32:46.491Z,1.94
2022-11-06T05:33:46.429Z,1.85
2022-11-06T05:34:46.430Z,2.00
2022-11-06T05:35:46.402Z,1.91
2022-11-06T05:36:46.410Z,1.80
2022-11-06T05:37:46.430Z,1.77
2022-11-06T05:38:46.401Z,1.80
2022-11-06T05:39:46.370Z,1.85
2022-11-06T05:40:46.354Z,1.81
2022-11-06T05:41:46.349Z,1.56
2022-11-06T05:42:46.375Z,1.70
2022-11-06T05:43:46.325Z,1.53
2022-11-06T05:44:46.338Z,1.55
2022-11-06T05:45:46.309Z,1.58
2022-11-06T05:46:49.260Z,1.77
2022-11-06T05:47:46.309Z,1.76
2022-11-06T05:48:46.282Z,1.74
2022-11-06T05:49:46.251Z,1.77
2022-11-06T05:50:46.265Z,1.84
2022-11-06T05:51:46.229Z,1.84
2022-11-06T05:52:46.243Z,1.91
2022-11-06T05:53:46.207Z,1.92
2022-11-06T05:54:46.218Z,1.92
2022-11-06T05:55:46.181Z,2.10
2022-11-06T05:56:46.191Z,2.11
2022-11-06T05:57:46.187Z,2.04
2022-11-06T05:58:46.146Z,1.88
2022-11-06T05:59:46.139Z,2.14
2022-11-06T06:00:46.132Z,2.11
2022-11-06T06:01:46.263Z,2.18
2022-11-06T06:02:46.262Z,2.22
2022-11-06T06:03:46.104Z,2.68
2022-11-06T06:04:46.088Z,2.83
2022-11-06T06:05:46.061Z,2.82
2022-11-06T06:06:46.078Z,2.82
2022-11-06T06:07:46.092Z,2.74
2022-11-06T06:08:46.055Z,2.79
2022-11-06T06:09:46.013Z,2.87
2022-11-06T06:10:46.031Z,3.03
2022-11-06T06:11:46.011Z,3.10
2022-11-06T06:12:46.020Z,3.10
2022-11-06T06:13:46.023Z,3.18
2022-11-06T06:14:50.228Z,3.22
2022-11-06T06:15:45.967Z,3.21
2022-11-06T06:16:45.950Z,3.21
2022-11-06T06:17:45.949Z,3.26
2022-11-06T06:18:45.973Z,3.44
2022-11-06T06:19:45.925Z,3.37
2022-11-06T06:20:45.915Z,3.41
2022-11-06T06:21:45.934Z,3.45
2022-11-06T06:22:45.889Z,3.47
2022-11-06T06:23:45.910Z,3.44
2022-11-06T06:24:45.909Z,3.40
2022-11-06T06:25:45.847Z,3.36
2022-11-06T06:26:45.850Z,3.28
2022-11-06T06:27:45.825Z,3.16
2022-11-06T06:28:45.841Z,3.22
2022-11-06T06:29:45.808Z,3.29
2022-11-06T06:30:45.816Z,3.13
2022-11-06T06:31:45.813Z,3.22
2022-11-06T06:32:45.773Z,3.34
2022-11-06T06:33:45.786Z,3.31
2022-11-06T06:34:45.755Z,3.36
2022-11-06T06:35:45.734Z,3.45
2022-11-06T06:36:45.721Z,3.41
2022-11-06T06:37:45.705Z,3.32
2022-11-06T06:38:45.737Z,3.50
2022-11-06T06:39:45.704Z,3.34
2022-11-06T06:40:45.696Z,3.25
2022-11-06T06:41:45.663Z,3.26
2022-11-06T06:42:45.674Z,3.23
2022-11-06T06:43:45.679Z,3.31
2022-11-06T06:44:45.653Z,3.44
2022-11-06T06:45:45.618Z,3.37
2022-11-06T06:46:45.641Z,3.37
2022-11-06T06:47:45.602Z,3.59
2022-11-06T06:48:45.641Z,3.40
2022-11-06T06:49:45.593Z,3.48
2022-11-06T06:50:45.572Z,3.56
2022-11-06T06:51:45.549Z,3.62
2022-11-06T06:52:45.565Z,3.73
2022-11-06T06:53:45.571Z,3.88
2022-11-06T06:54:45.532Z,4.17
2022-11-06T06:55:45.512Z,4.92
2022-11-06T06:56:45.517Z,5.41
2022-11-06T06:57:45.486Z,5.53
2022-11-06T06:58:45.517Z,5.65
2022-11-06T06:59:45.475Z,6.04
2022-11-06T07:00:45.530Z,6.42
2022-11-06T07:01:45.556Z,6.74
2022-11-06T07:02:45.430Z,7.03
2022-11-06T07:03:45.449Z,7.29
2022-11-06T07:04:45.417Z,7.66
2022-11-06T07:05:45.409Z,7.75
2022-11-06T07:06:45.398Z,7.88
2022-11-06T07:07:45.378Z,8.33
2022-11-06T07:08:45.394Z,8.23
2022-11-06T07:09:45.345Z,8.01
2022-11-06T07:10:45.365Z,8.23
2022-11-06T07:11:45.325Z,8.34
2022-11-06T07:12:45.333Z,8.76
2022-11-06T07:13:46.335Z,9.11
2022-11-06T07:14:45.300Z,9.03
2022-11-06T07:15:45.288Z,9.34
2022-11-06T07:16:49.695Z,9.21
2022-11-06T07:17:46.279Z,9.39
2022-11-06T07:18:45.377Z,9.39
2022-11-06T07:19:45.242Z,9.66
2022-11-06T07:20:45.248Z,9.83
2022-11-06T07:21:45.281Z,10.07
2022-11-06T07:22:45.248Z,10.17
2022-11-06T07:23:45.211Z,9.92
2022-11-06T07:24:45.322Z,9.95
2022-11-06T07:25:45.164Z,9.89
2022-11-06T07:26:45.174Z,10.28
2022-11-06T07:27:45.143Z,10.26
2022-11-06T07:28:45.177Z,10.17
2022-11-06T07:29:45.766Z,9.79
2022-11-06T07:30:45.327Z,9.44
2022-11-06T07:31:45.113Z,9.18
2022-11-06T07:32:45.106Z,9.19
2022-11-06T07:33:45.168Z,9.31
2022-11-06T07:34:45.131Z,9.62
2022-11-06T07:35:45.056Z,9.95
2022-11-06T07:36:45.069Z,10.25
2022-11-06T07:37:45.031Z,10.12
2022-11-06T07:38:45.039Z,9.68
2022-11-06T07:39:45.024Z,9.25
2022-11-06T07:40:45.016Z,9.34
2022-11-06T07:41:44.972Z,9.40
2022-11-06T07:42:45.015Z,9.58
2022-11-06T07:43:44.948Z,9.99
2022-11-06T07:44:44.977Z,10.23
2022-11-06T07:45:44.951Z,9.99
2022-11-06T07:46:44.918Z,9.87
2022-11-06T07:47:44.929Z,9.87
2022-11-06T07:48:44.911Z,9.87
2022-11-06T07:49:50.576Z,9.65
2022-11-06T07:50:45.889Z,9.98
2022-11-06T07:51:44.892Z,9.99
2022-11-06T07:52:44.877Z,10.61
2022-11-06T07:53:44.866Z,11.04
2022-11-06T07:54:44.873Z,11.12
2022-11-06T07:55:44.831Z,10.74
2022-11-06T07:56:44.830Z,10.76
2022-11-06T07:57:44.805Z,10.81
2022-11-06T07:58:44.811Z,10.79
2022-11-06T07:59:44.808Z,10.93
2022-11-06T08:00:44.830Z,11.55
2022-11-06T08:01:44.872Z,11.22
2022-11-06T08:02:44.777Z,11.35
2022-11-06T08:03:44.755Z,11.54
2022-11-06T08:04:44.806Z,12.12
2022-11-06T08:05:44.731Z,12.04
2022-11-06T08:06:44.701Z,12.06
2022-11-06T08:07:44.707Z,12.67
2022-11-06T08:08:44.685Z,12.94
2022-11-06T08:09:44.719Z,12.78
2022-11-06T08:10:44.676Z,12.29
2022-11-06T08:11:44.655Z,12.68
2022-11-06T08:12:44.653Z,12.61
2022-11-06T08:13:44.633Z,12.47
2022-11-06T08:14:44.648Z,12.64
2022-11-06T08:15:44.611Z,12.58
2022-11-06T08:16:44.598Z,12.85
2022-11-06T08:17:44.591Z,13.31
2022-11-06T08:18:44.570Z,13.50
2022-11-06T08:19:44.596Z,13.74
2022-11-06T08:20:44.561Z,13.52
2022-11-06T08:21:44.544Z,13.30
2022-11-06T08:22:44.525Z,13.77
2022-11-06T08:23:44.506Z,13.35
2022-11-06T08:24:44.530Z,12.79
2022-11-06T08:25:44.488Z,12.70
2022-11-06T08:26:44.494Z,12.97
2022-11-06T08:27:44.467Z,13.25
2022-11-06T08:28:44.473Z,12.80
2022-11-06T08:29:44.491Z,12.70
2022-11-06T08:30:44.461Z,12.45
2022-11-06T08:31:44.429Z,12.58
2022-11-06T08:32:44.417Z,13.16
2022-11-06T08:33:44.412Z,13.35
2022-11-06T08:34:44.436Z,13.23
2022-11-06T08:35:44.384Z,12.94
2022-11-06T08:36:49.123Z,13.00
2022-11-06T08:37:45.372Z,12.97
2022-11-06T08:38:44.347Z,12.61
2022-11-06T08:39:44.379Z,12.47
2022-11-06T08:40:48.151Z,12.53
2022-11-06T08:41:45.315Z,12.58
2022-11-06T08:42:44.337Z,12.57
2022-11-06T08:43:44.289Z,12.10
2022-11-06T08:44:44.316Z,11.80
2022-11-06T08:45:44.268Z,11.45
2022-11-06T08:46:47.854Z,11.66
2022-11-06T08:47:45.255Z,11.47
2022-11-06T08:48:44.230Z,11.32
2022-11-06T08:49:44.316Z,11.22
2022-11-06T08:50:44.209Z,11.25
2022-11-06T08:51:44.211Z,11.14
2022-11-06T08:52:44.192Z,11.35
2022-11-06T08:53:44.237Z,11.18
2022-11-06T08:54:44.210Z,11.45
2022-11-06T08:55:44.156Z,11.50
2022-11-06T08:56:44.154Z,11.48
2022-11-06T08:57:44.133Z,11.41
2022-11-06T08:58:44.132Z,11.11
2022-11-06T08:59:44.152Z,10.84
2022-11-06T09:00:44.170Z,10.97
2022-11-06T09:01:44.151Z,11.14
2022-11-06T09:02:44.057Z,11.05
2022-11-06T09:03:44.060Z,11.04
2022-11-06T09:04:44.085Z,11.05
2022-11-06T09:05:44.057Z,11.11
2022-11-06T09:06:44.024Z,11.07
2022-11-06T09:07:44.029Z,10.99
2022-11-06T09:08:44.011Z,10.92
2022-11-06T09:09:44.037Z,11.04
2022-11-06T09:10:43.989Z,11.15
2022-11-06T09:11:43.964Z,11.02
2022-11-06T09:12:43.959Z,11.07
2022-11-06T09:13:43.958Z,11.11
2022-11-06T09:14:43.970Z,11.30
2022-11-06T09:15:43.931Z,11.65
2022-11-06T09:16:43.915Z,11.94
2022-11-06T09:17:43.914Z,12.06
2022-11-06T09:18:43.885Z,12.27
2022-11-06T09:19:43.917Z,12.24
2022-11-06T09:20:43.906Z,12.07
2022-11-06T09:21:43.873Z,11.78
2022-11-06T09:22:43.855Z,11.26
2022-11-06T09:23:43.853Z,11.25
2022-11-06T09:25:02.492Z,11.17
2022-11-06T09:25:44.832Z,11.27
2022-11-06T09:26:43.828Z,11.36
2022-11-06T09:27:43.840Z,11.48
2022-11-06T09:28:43.795Z,11.26
2022-11-06T09:29:43.809Z,11.30
2022-11-06T09:30:43.768Z,11.65
2022-11-06T09:31:43.760Z,11.87
2022-11-06T09:32:43.754Z,11.94
2022-11-06T09:33:43.753Z,11.87
2022-11-06T09:34:43.716Z,11.99
2022-11-06T09:35:43.733Z,12.07
2022-11-06T09:36:43.682Z,12.12
2022-11-06T09:37:43.668Z,12.18
2022-11-06T09:38:43.663Z,11.94
2022-11-06T09:39:43.648Z,11.94
2022-11-06T09:40:43.679Z,11.73
2022-11-06T09:41:43.630Z,11.54
2022-11-06T09:42:43.626Z,11.65
2022-11-06T09:44:04.088Z,12.04
2022-11-06T09:44:44.609Z,12.27
2022-11-06T09:45:43.645Z,12.06
2022-11-06T09:46:43.572Z,12.03
2022-11-06T09:47:43.572Z,11.70
2022-11-06T09:48:43.560Z,11.65
2022-11-06T09:49:43.644Z,11.75
2022-11-06T09:50:43.569Z,11.63
2022-11-06T09:51:43.519Z,11.77
2022-11-06T09:52:43.522Z,11.88
2022-11-06T09:53:43.539Z,11.87
2022-11-06T09:54:43.480Z,11.86
2022-11-06T09:55:43.510Z,11.77
2022-11-06T09:56:43.464Z,11.90
2022-11-06T09:57:43.472Z,11.94
2022-11-06T09:58:43.444Z,12.25
2022-11-06T09:59:43.439Z,12.25
2022-11-06T10:00:43.573Z,12.20
2022-11-06T10:01:43.504Z,12.12
2022-11-06T10:02:43.520Z,12.50
2022-11-06T10:03:43.449Z,12.45
2022-11-06T10:04:43.386Z,12.49
2022-11-06T10:05:43.415Z,12.54
2022-11-06T10:06:43.339Z,12.47
2022-11-06T10:07:43.346Z,12.35
2022-11-06T10:08:43.328Z,12.35
2022-11-06T10:09:43.334Z,12.42
2022-11-06T10:10:43.338Z,12.46
2022-11-06T10:11:43.320Z,12.40
2022-11-06T10:12:43.304Z,12.60
2022-11-06T10:13:43.294Z,12.73
2022-11-06T10:14:43.270Z,12.54
2022-11-06T10:15:43.275Z,12.43
2022-11-06T10:16:43.233Z,12.42
2022-11-06T10:17:43.220Z,12.55
2022-11-06T10:18:43.219Z,12.64
2022-11-06T10:19:43.206Z,12.75
2022-11-06T10:20:43.227Z,12.94
2022-11-06T10:21:43.187Z,13.15
2022-11-06T10:22:43.195Z,13.20
2022-11-06T10:23:43.204Z,13.03
2022-11-06T10:24:43.146Z,13.05
2022-11-06T10:25:43.183Z,13.09
2022-11-06T10:26:43.128Z,13.08
2022-11-06T10:27:43.133Z,13.01
2022-11-06T10:28:43.096Z,12.76
2022-11-06T10:29:43.133Z,12.75
2022-11-06T10:30:43.132Z,12.83
2022-11-06T10:31:43.086Z,13.18
2022-11-06T10:32:43.122Z,13.44
2022-11-06T10:33:43.048Z,13.42
2022-11-06T10:34:43.049Z,13.30
2022-11-06T10:35:43.023Z,13.08
2022-11-06T10:36:47.315Z,13.46
2022-11-06T10:37:44.033Z,14.03
2022-11-06T10:38:43.005Z,14.28
2022-11-06T10:39:42.982Z,14.18
2022-11-06T10:40:42.962Z,14.32
2022-11-06T10:41:42.986Z,14.79
2022-11-06T10:42:42.957Z,14.72
2022-11-06T10:43:42.948Z,14.96
2022-11-06T10:44:42.920Z,15.04
2022-11-06T10:45:42.930Z,15.47
2022-11-06T10:46:42.926Z,15.43
2022-11-06T10:47:42.900Z,15.79
2022-11-06T10:48:42.895Z,15.76
2022-11-06T10:49:42.892Z,15.82
2022-11-06T10:50:42.868Z,15.14
2022-11-06T10:51:42.864Z,14.78
2022-11-06T10:52:42.851Z,14.62
2022-11-06T10:53:42.812Z,14.85
2022-11-06T10:54:42.799Z,15.00
2022-11-06T10:55:42.783Z,15.22
2022-11-06T10:56:42.824Z,15.14
2022-11-06T10:57:42.767Z,14.50
2022-11-06T10:58:42.778Z,14.32
2022-11-06T10:59:42.743Z,14.03
2022-11-06T11:00:42.792Z,14.18
2022-11-06T11:01:42.880Z,14.48
2022-11-06T11:02:42.766Z,14.60
2022-11-06T11:03:42.707Z,14.92
2022-11-06T11:04:42.705Z,15.14
2022-11-06T11:05:42.703Z,15.52
2022-11-06T11:06:42.707Z,15.57
2022-11-06T11:07:42.669Z,15.57
2022-11-06T11:08:42.647Z,16.01
2022-11-06T11:09:42.658Z,16.26
2022-11-06T11:10:42.637Z,16.21
2022-11-06T11:11:42.647Z,16.53
2022-11-06T11:12:42.627Z,16.75
2022-11-06T11:13:42.616Z,16.60
2022-11-06T11:14:42.589Z,16.36
2022-11-06T11:15:42.577Z,16.58
2022-11-06T11:16:42.596Z,16.89
2022-11-06T11:17:42.554Z,16.87
2022-11-06T11:18:42.541Z,17.09
2022-11-06T11:19:42.529Z,17.39
2022-11-06T11:20:42.498Z,17.26
2022-11-06T11:21:42.518Z,17.46
2022-11-06T11:22:42.527Z,17.92
2022-11-06T11:23:42.485Z,17.33
2022-11-06T11:24:42.468Z,17.74
2022-11-06T11:25:42.469Z,18.11
2022-11-06T11:26:42.478Z,17.74
2022-11-06T11:27:42.437Z,17.29
2022-11-06T11:28:42.420Z,17.23
2022-11-06T11:29:42.395Z,17.41
2022-11-06T11:30:42.415Z,17.01
2022-11-06T11:31:42.414Z,16.97
2022-11-06T11:32:42.403Z,17.01
2022-11-06T11:33:42.360Z,17.15
2022-11-06T11:34:47.646Z,17.72
2022-11-06T11:35:43.356Z,17.95
2022-11-06T11:36:42.370Z,18.44
2022-11-06T11:37:42.336Z,18.53
2022-11-06T11:38:42.311Z,18.26
2022-11-06T11:39:42.321Z,18.26
2022-11-06T11:40:42.284Z,18.20
2022-11-06T11:41:42.292Z,18.35
2022-11-06T11:42:42.302Z,18.19
2022-11-06T11:43:42.266Z,17.82
2022-11-06T11:44:42.253Z,16.61
2022-11-06T11:45:42.235Z,16.42
2022-11-06T11:46:42.219Z,16.49
2022-11-06T11:47:42.298Z,16.51
2022-11-06T11:48:42.213Z,17.01
2022-11-06T11:49:42.194Z,16.90
2022-11-06T11:50:42.176Z,17.22
2022-11-06T11:51:42.165Z,17.54
2022-11-06T11:52:42.869Z,17.60
2022-11-06T11:53:42.152Z,18.31
2022-11-06T11:54:42.122Z,18.26
2022-11-06T11:55:42.135Z,17.92
2022-11-06T11:57:03.668Z,18.35
2022-11-06T11:57:43.157Z,18.34
2022-11-06T11:58:42.090Z,17.83
2022-11-06T11:59:42.078Z,17.41
2022-11-06T12:00:42.074Z,17.34
2022-11-06T12:01:42.111Z,17.36
2022-11-06T12:02:42.085Z,17.63
2022-11-06T12:03:42.018Z,17.08
2022-11-06T12:04:42.047Z,17.15
2022-11-06T12:05:42.016Z,16.90
2022-11-06T12:06:42.016Z,16.65
2022-11-06T12:07:45.925Z,16.93
2022-11-06T12:08:41.970Z,16.75
2022-11-06T12:09:41.956Z,16.97
2022-11-06T12:10:41.963Z,16.56
2022-11-06T12:11:41.937Z,16.58
2022-11-06T12:12:41.974Z,17.01
2022-11-06T12:13:41.934Z,17.06
2022-11-06T12:14:41.935Z,17.08
2022-11-06T12:15:41.923Z,16.94
2022-11-06T12:16:41.893Z,17.19
2022-11-06T12:17:41.905Z,17.09
2022-11-06T12:18:41.871Z,17.16
2022-11-06T12:19:41.856Z,17.14
2022-11-06T12:20:41.866Z,17.19
2022-11-06T12:21:41.826Z,16.86
2022-11-06T12:22:41.856Z,16.72
2022-11-06T12:23:41.817Z,16.60
2022-11-06T12:24:41.811Z,16.54
2022-11-06T12:25:41.783Z,16.39
2022-11-06T12:26:41.777Z,16.49
2022-11-06T12:27:41.795Z,16.65
2022-11-06T12:28:41.744Z,16.74
2022-11-06T12:29:41.754Z,16.57
2022-11-06T12:30:41.719Z,16.38
2022-11-06T12:31:41.722Z,17.02
2022-11-06T12:32:41.748Z,17.16
2022-11-06T12:34:05.224Z,17.39
2022-11-06T12:34:42.681Z,17.24
2022-11-06T12:35:41.666Z,17.39
2022-11-06T12:36:41.639Z,16.86
2022-11-06T12:37:41.705Z,16.79
2022-11-06T12:38:41.644Z,16.68
2022-11-06T12:39:41.631Z,16.65
2022-11-06T12:40:41.607Z,16.89
2022-11-06T12:41:41.618Z,16.78
2022-11-06T12:42:41.644Z,16.68
2022-11-06T12:43:41.608Z,16.56
2022-11-06T12:44:41.554Z,16.74
2022-11-06T12:45:41.576Z,16.53
2022-11-06T12:46:41.545Z,16.23
2022-11-06T12:47:41.559Z,16.43
2022-11-06T12:48:41.522Z,16.72
2022-11-06T12:49:41.499Z,16.78
2022-11-06T12:50:41.509Z,16.89
2022-11-06T12:51:41.493Z,17.04
2022-11-06T12:52:41.510Z,17.39
2022-11-06T12:53:41.484Z,17.11
2022-11-06T12:54:41.463Z,16.76
2022-11-06T12:55:41.450Z,16.43
2022-11-06T12:56:41.435Z,16.54
2022-11-06T12:57:41.472Z,16.47
2022-11-06T12:58:41.398Z,16.36
2022-11-06T12:59:41.399Z,16.09
2022-11-06T13:00:41.391Z,15.70
2022-11-06T13:01:41.547Z,15.46
2022-11-06T13:02:41.471Z,15.43
2022-11-06T13:03:41.345Z,15.28
2022-11-06T13:04:41.343Z,15.11
2022-11-06T13:05:41.349Z,15.18
2022-11-06T13:06:41.344Z,15.40
2022-11-06T13:07:41.305Z,15.73
2022-11-06T13:08:41.334Z,16.13